createdAt,value
2022-07-31T00:01:01.021Z,69.62
2022-07-31T00:03:29.079Z,69.42
2022-07-31T00:05:57.294Z,71.13
2022-07-31T00:08:25.924Z,72.27
2022-07-31T00:10:53.978Z,76.16
2022-07-31T00:13:56.558Z,73.26
2022-07-31T00:16:11.718Z,72.72
2022-07-31T00:18:39.860Z,71.52
2022-07-31T00:21:07.987Z,70.82
2022-07-31T00:23:36.053Z,70.82
2022-07-31T00:26:04.177Z,72.09
2022-07-31T00:28:32.909Z,71.05
2022-07-31T00:31:00.999Z,70.78
2022-07-31T00:33:30.764Z,70.13
2022-07-31T00:35:58.885Z,70.73
2022-07-31T00:38:27.623Z,67.79
2022-07-31T00:40:56.270Z,68.02
2022-07-31T00:43:27.565Z,68.03
2022-07-31T00:45:59.443Z,68.50
2022-07-31T00:48:28.082Z,67.87
2022-07-31T00:50:57.947Z,66.93
2022-07-31T00:53:26.193Z,68.69
2022-07-31T00:55:54.823Z,65.57
2022-07-31T00:58:25.039Z,66.71
2022-07-31T01:00:53.311Z,66.35
2022-07-31T01:03:21.609Z,66.54
2022-07-31T01:05:49.674Z,67.96
2022-07-31T01:08:19.139Z,69.30
2022-07-31T01:10:55.303Z,70.90
2022-07-31T01:13:33.861Z,70.62
2022-07-31T01:16:04.404Z,74.38
2022-07-31T01:18:35.814Z,73.46
2022-07-31T01:21:08.639Z,74.55
2022-07-31T01:23:54.944Z,75.77
2022-07-31T01:26:51.097Z,77.13
2022-07-31T01:29:28.161Z,79.05
2022-07-31T01:32:03.897Z,81.07
2022-07-31T01:34:38.113Z,82.83
2022-07-31T01:37:14.861Z,83.63
2022-07-31T01:39:47.616Z,85.25
2022-07-31T01:42:19.557Z,87.48
2022-07-31T01:44:54.233Z,87.83
2022-07-31T01:47:26.275Z,85.92
2022-07-31T01:49:56.908Z,86.43
2022-07-31T01:52:27.734Z,86.12
2022-07-31T01:54:58.482Z,85.56
2022-07-31T01:57:28.443Z,85.66
2022-07-31T02:00:02.817Z,84.98
2022-07-31T02:02:50.358Z,83.87
2022-07-31T02:05:24.111Z,85.36
2022-07-31T02:07:54.291Z,85.50
2022-07-31T02:10:26.111Z,85.02
2022-07-31T02:12:55.393Z,85.21
2022-07-31T02:15:25.533Z,85.85
2022-07-31T02:17:55.446Z,85.67
2022-07-31T02:20:24.897Z,86.57
2022-07-31T02:22:57.934Z,86.58
2022-07-31T02:25:27.793Z,87.02
2022-07-31T02:27:59.277Z,87.52
2022-07-31T02:30:38.520Z,87.85
2022-07-31T02:33:11.064Z,88.64
2022-07-31T02:35:44.036Z,88.89
2022-07-31T02:38:22.770Z,87.62
2022-07-31T02:40:57.461Z,88.75
2022-07-31T02:43:26.645Z,89.49
2022-07-31T02:45:59.345Z,90.93
2022-07-31T02:48:29.094Z,92.36
2022-07-31T02:51:01.324Z,93.69
2022-07-31T02:53:31.496Z,95.54
2022-07-31T02:56:04.515Z,96.60
2022-07-31T02:58:35.618Z,98.20
2022-07-31T03:01:06.916Z,98.59
2022-07-31T03:03:36.214Z,98.54
2022-07-31T03:06:04.458Z,99.27
2022-07-31T03:08:33.665Z,99.97
2022-07-31T03:11:05.675Z,98.83
2022-07-31T03:13:36.627Z,98.22
2022-07-31T03:16:09.001Z,98.55
2022-07-31T03:18:38.554Z,97.05
2022-07-31T03:21:07.639Z,96.19
2022-07-31T03:23:37.175Z,95.62
2022-07-31T03:26:10.322Z,94.55
2022-07-31T03:28:38.403Z,94.91
2022-07-31T03:31:08.770Z,93.76
2022-07-31T03:33:37.697Z,93.71
2022-07-31T03:36:06.644Z,93.95
2022-07-31T03:38:40.931Z,94.54
2022-07-31T03:41:19.492Z,94.70
2022-07-31T03:43:49.187Z,94.52
2022-07-31T03:46:23.437Z,94.65
2022-07-31T03:48:52.843Z,95.29
2022-07-31T03:51:21.835Z,94.67
2022-07-31T03:53:51.546Z,96.54
2022-07-31T03:56:53.572Z,94.54
2022-07-31T03:59:24.062Z,94.00
2022-07-31T04:01:57.664Z,92.98
2022-07-31T04:04:40.362Z,92.12
2022-07-31T04:07:09.261Z,90.90
2022-07-31T04:09:38.518Z,89.46
2022-07-31T04:12:07.957Z,88.29
2022-07-31T04:14:36.292Z,88.75
2022-07-31T04:17:06.577Z,87.98
2022-07-31T04:19:35.077Z,86.73
2022-07-31T04:22:03.693Z,87.42
2022-07-31T04:24:32.739Z,87.26
2022-07-31T04:27:26.967Z,86.00
2022-07-31T04:29:56.801Z,88.70
2022-07-31T04:32:26.299Z,84.59
2022-07-31T04:34:57.893Z,84.22
2022-07-31T04:37:26.011Z,84.00
2022-07-31T04:39:54.388Z,83.18
2022-07-31T04:42:22.495Z,83.57
2022-07-31T04:44:50.647Z,83.51
2022-07-31T04:47:18.849Z,80.66
2022-07-31T04:49:52.352Z,81.43
2022-07-31T04:52:20.605Z,80.29
2022-07-31T04:54:50.789Z,79.10
2022-07-31T04:57:21.940Z,78.11
2022-07-31T05:00:00.459Z,78.53
2022-07-31T05:02:32.195Z,78.51
2022-07-31T05:05:01.745Z,76.65
2022-07-31T05:07:36.442Z,77.54
2022-07-31T05:10:30.937Z,77.21
2022-07-31T05:12:59.194Z,76.77
2022-07-31T05:15:27.410Z,76.63
2022-07-31T05:17:57.531Z,74.77
2022-07-31T05:20:52.902Z,76.23
2022-07-31T05:23:49.465Z,77.15
2022-07-31T05:26:36.371Z,76.46
2022-07-31T05:29:04.649Z,76.59
2022-07-31T05:31:32.784Z,75.04
2022-07-31T05:34:01.116Z,77.44
2022-07-31T05:36:31.025Z,78.91
2022-07-31T05:38:59.188Z,78.94
2022-07-31T05:41:49.037Z,80.81
2022-07-31T05:44:37.626Z,78.85
2022-07-31T05:47:08.168Z,78.24
2022-07-31T05:49:36.361Z,78.68
2022-07-31T05:52:06.819Z,75.11
2022-07-31T05:54:35.064Z,77.75
2022-07-31T05:57:33.738Z,78.81
2022-07-31T06:00:04.367Z,81.05
2022-07-31T06:02:39.930Z,79.89
2022-07-31T06:05:20.464Z,81.32
2022-07-31T06:07:51.879Z,79.13
2022-07-31T06:10:21.019Z,77.92
2022-07-31T06:12:49.371Z,72.99
2022-07-31T06:15:19.095Z,72.78
2022-07-31T06:17:47.636Z,71.07
2022-07-31T06:20:24.017Z,69.93
2022-07-31T06:22:53.815Z,68.68
2022-07-31T06:25:22.370Z,72.88
2022-07-31T06:27:59.358Z,70.78
2022-07-31T06:30:29.173Z,72.04
2022-07-31T06:32:57.278Z,68.70
2022-07-31T06:35:26.296Z,70.41
2022-07-31T06:38:14.693Z,68.60
2022-07-31T06:41:02.749Z,66.56
2022-07-31T06:43:45.769Z,64.09
2022-07-31T06:46:33.943Z,64.68
2022-07-31T06:49:25.017Z,62.11
2022-07-31T06:51:53.685Z,59.07
2022-07-31T06:54:26.892Z,59.52
2022-07-31T06:56:56.320Z,57.67
2022-07-31T06:59:40.368Z,57.33
2022-07-31T07:02:09.949Z,54.90
2022-07-31T07:04:58.501Z,54.94
2022-07-31T07:07:31.511Z,54.67
2022-07-31T07:10:02.109Z,52.62
2022-07-31T07:12:48.689Z,49.11
2022-07-31T07:15:16.883Z,49.97
2022-07-31T07:17:45.346Z,49.32
2022-07-31T07:20:18.337Z,51.42
2022-07-31T07:22:46.467Z,49.28
2022-07-31T07:25:22.682Z,47.60
2022-07-31T07:27:52.478Z,47.97
2022-07-31T07:30:20.762Z,47.39
2022-07-31T07:32:48.865Z,48.80
2022-07-31T07:35:17.001Z,48.10
2022-07-31T07:37:53.111Z,45.55
2022-07-31T07:40:23.055Z,44.87
2022-07-31T07:42:51.257Z,44.33
2022-07-31T07:45:19.790Z,45.32
2022-07-31T07:47:53.765Z,44.29
2022-07-31T07:50:42.650Z,44.00
2022-07-31T07:53:29.366Z,43.31
2022-07-31T07:56:19.058Z,42.58
2022-07-31T07:59:16.507Z,41.15
2022-07-31T08:02:03.552Z,40.76
2022-07-31T08:04:34.153Z,41.77
2022-07-31T08:07:03.717Z,41.92
2022-07-31T08:09:36.915Z,41.04
2022-07-31T08:12:25.510Z,41.26
2022-07-31T08:15:07.334Z,42.25
2022-07-31T08:18:04.704Z,39.85
2022-07-31T08:20:32.983Z,38.02
2022-07-31T08:23:01.116Z,39.24
2022-07-31T08:25:32.134Z,39.18
2022-07-31T08:28:02.267Z,39.43
2022-07-31T08:30:31.260Z,38.46
2022-07-31T08:32:59.974Z,38.63
2022-07-31T08:35:40.619Z,38.17
2022-07-31T08:38:13.904Z,37.22
2022-07-31T08:40:51.494Z,37.55
2022-07-31T08:46:10.561Z,36.93
2022-07-31T08:48:42.356Z,36.87
2022-07-31T08:51:13.709Z,35.00
2022-07-31T08:54:17.503Z,34.44
2022-07-31T08:56:47.119Z,33.99
2022-07-31T08:59:17.923Z,36.79
2022-07-31T09:01:47.174Z,37.14
2022-07-31T09:04:15.357Z,36.00
2022-07-31T09:06:43.766Z,36.20
2022-07-31T09:09:11.911Z,35.11
2022-07-31T09:11:48.141Z,35.57
2022-07-31T09:14:36.442Z,36.06
2022-07-31T09:17:09.369Z,34.88
2022-07-31T09:19:52.897Z,35.97
2022-07-31T09:22:28.031Z,34.15
2022-07-31T09:25:11.938Z,33.19
2022-07-31T09:27:40.548Z,32.82
2022-07-31T09:30:11.714Z,31.31
2022-07-31T09:33:14.241Z,30.09
2022-07-31T09:36:00.432Z,29.45
2022-07-31T09:38:34.777Z,29.86
2022-07-31T09:41:55.987Z,30.62
2022-07-31T09:44:14.044Z,30.92
2022-07-31T09:46:45.469Z,30.77
2022-07-31T09:49:14.056Z,31.94
2022-07-31T09:51:46.963Z,31.83
2022-07-31T09:54:24.194Z,32.18
2022-07-31T09:57:13.055Z,31.64
2022-07-31T09:59:47.097Z,33.55
2022-07-31T10:02:19.490Z,32.79
2022-07-31T10:04:51.752Z,33.03
2022-07-31T10:07:24.350Z,32.86
2022-07-31T10:10:07.871Z,35.33
2022-07-31T10:12:48.944Z,32.55
2022-07-31T10:15:18.704Z,33.36
2022-07-31T10:17:54.933Z,35.56
2022-07-31T10:21:00.663Z,34.15
2022-07-31T10:23:48.568Z,33.66
2022-07-31T10:26:17.055Z,33.70
2022-07-31T10:28:45.293Z,32.70
2022-07-31T10:31:13.855Z,32.94
2022-07-31T10:33:47.527Z,31.38
2022-07-31T10:36:37.820Z,32.58
2022-07-31T10:39:36.860Z,30.91
2022-07-31T10:42:37.202Z,30.79
2022-07-31T10:45:07.683Z,29.68
2022-07-31T10:47:57.622Z,31.33
2022-07-31T10:50:48.198Z,32.61
2022-07-31T10:53:50.207Z,34.18
2022-07-31T10:56:22.371Z,29.50
2022-07-31T10:59:12.169Z,29.72
2022-07-31T11:02:10.730Z,27.52
2022-07-31T11:04:43.455Z,27.53
2022-07-31T11:07:35.702Z,29.95
2022-07-31T11:10:24.724Z,30.22
2022-07-31T11:13:17.653Z,29.58
2022-07-31T11:15:48.921Z,30.46
2022-07-31T11:18:35.591Z,30.72
2022-07-31T11:21:37.973Z,31.13
2022-07-31T11:24:03.360Z,30.62
2022-07-31T11:26:41.696Z,30.39
2022-07-31T11:30:02.013Z,28.53
2022-07-31T11:32:14.357Z,28.04
2022-07-31T11:34:50.110Z,29.12
2022-07-31T11:37:21.628Z,29.29
2022-07-31T11:39:53.406Z,30.18
2022-07-31T11:42:26.341Z,29.33
2022-07-31T11:45:10.803Z,28.08
2022-07-31T11:48:09.720Z,28.63
2022-07-31T11:50:30.671Z,28.29
2022-07-31T11:53:04.120Z,27.83
2022-07-31T11:55:44.332Z,29.40
2022-07-31T11:58:12.620Z,29.17
2022-07-31T12:00:40.825Z,28.63
2022-07-31T12:03:09.883Z,27.74
2022-07-31T12:05:45.289Z,27.86
2022-07-31T12:08:14.473Z,28.62
2022-07-31T12:10:44.475Z,28.45
2022-07-31T12:13:16.108Z,28.98
2022-07-31T12:16:00.458Z,28.83
2022-07-31T12:18:30.036Z,27.62
2022-07-31T12:20:59.738Z,28.33
2022-07-31T12:23:41.352Z,27.54
2022-07-31T12:26:13.245Z,27.81
2022-07-31T12:28:41.709Z,25.99
2022-07-31T12:31:09.762Z,26.09
2022-07-31T12:33:41.806Z,26.29
2022-07-31T12:36:14.907Z,27.07
2022-07-31T12:38:48.026Z,24.62
2022-07-31T12:41:18.439Z,24.97
2022-07-31T12:43:51.497Z,25.64
2022-07-31T12:46:22.705Z,24.29
2022-07-31T12:48:51.226Z,25.43
2022-07-31T12:51:21.220Z,25.02
2022-07-31T12:54:08.424Z,23.44
2022-07-31T12:56:38.915Z,24.42
2022-07-31T12:59:08.130Z,23.80
2022-07-31T13:01:36.758Z,25.06
2022-07-31T13:04:08.042Z,25.12
2022-07-31T13:06:48.921Z,25.89
2022-07-31T13:09:17.388Z,23.99
2022-07-31T13:11:48.347Z,25.07
2022-07-31T13:14:17.276Z,23.47
2022-07-31T13:16:45.580Z,23.84
2022-07-31T13:19:14.206Z,23.54
2022-07-31T13:21:49.447Z,23.17
2022-07-31T13:24:19.529Z,22.55
2022-07-31T13:26:50.125Z,22.88
2022-07-31T13:29:18.661Z,22.92
2022-07-31T13:31:46.789Z,22.44
2022-07-31T13:34:14.922Z,24.22
2022-07-31T13:36:43.121Z,24.85
2022-07-31T13:39:11.665Z,22.81
2022-07-31T13:41:40.215Z,21.10
2022-07-31T13:44:10.109Z,20.22
2022-07-31T13:46:38.383Z,20.25
2022-07-31T13:49:09.514Z,19.50
2022-07-31T13:51:38.284Z,19.59
2022-07-31T13:54:06.763Z,20.24
2022-07-31T13:56:42.251Z,20.38
2022-07-31T13:59:14.305Z,20.68
2022-07-31T14:02:03.359Z,19.49
2022-07-31T14:04:38.303Z,18.96
2022-07-31T14:07:08.342Z,20.66
2022-07-31T14:09:37.511Z,21.51
2022-07-31T14:12:06.480Z,21.32
2022-07-31T14:14:36.201Z,20.49
2022-07-31T14:17:04.650Z,20.58
2022-07-31T14:19:40.535Z,20.10
2022-07-31T14:22:14.133Z,20.11
2022-07-31T14:24:49.402Z,19.47
2022-07-31T14:27:19.979Z,19.17
2022-07-31T14:29:52.295Z,19.21
2022-07-31T14:32:22.097Z,19.75
2022-07-31T14:34:51.232Z,19.96
2022-07-31T14:37:20.546Z,20.73
2022-07-31T14:39:48.902Z,20.81
2022-07-31T14:42:22.523Z,20.42
2022-07-31T14:44:55.406Z,20.58
2022-07-31T14:47:23.845Z,20.57
2022-07-31T14:50:07.287Z,21.37
2022-07-31T14:52:38.383Z,20.18
2022-07-31T14:55:07.733Z,20.25
2022-07-31T14:57:35.992Z,19.61
2022-07-31T15:00:12.386Z,18.82
2022-07-31T15:02:40.987Z,19.84
2022-07-31T15:06:39.592Z,19.94
2022-07-31T15:07:58.446Z,21.06
2022-07-31T15:10:26.607Z,22.47
2022-07-31T15:12:54.857Z,19.77
2022-07-31T15:15:24.517Z,19.49
2022-07-31T15:17:56.710Z,19.65
2022-07-31T15:20:32.906Z,19.83
2022-07-31T15:23:01.724Z,20.14
2022-07-31T15:25:29.903Z,20.81
2022-07-31T15:27:58.055Z,21.24
2022-07-31T15:30:27.700Z,22.07
2022-07-31T15:32:55.868Z,22.16
2022-07-31T15:35:24.149Z,22.56
2022-07-31T15:37:52.297Z,22.36
2022-07-31T15:40:20.653Z,22.37
2022-07-31T15:42:49.902Z,22.71
2022-07-31T15:45:19.937Z,22.69
2022-07-31T15:47:49.677Z,22.17
2022-07-31T15:50:20.134Z,23.46
2022-07-31T15:52:48.352Z,23.54
2022-07-31T15:55:17.753Z,23.38
2022-07-31T15:57:46.686Z,23.49
2022-07-31T16:00:15.867Z,23.29
2022-07-31T16:02:45.642Z,24.09
2022-07-31T16:05:35.865Z,24.37
2022-07-31T16:08:32.495Z,24.42
2022-07-31T16:10:54.860Z,24.26
2022-07-31T16:13:23.805Z,24.08
2022-07-31T16:15:52.808Z,24.70
2022-07-31T16:18:21.149Z,24.77
2022-07-31T16:20:50.824Z,24.99
2022-07-31T16:23:18.975Z,25.37
2022-07-31T16:25:47.184Z,25.38
2022-07-31T16:28:15.434Z,26.35
2022-07-31T16:30:45.563Z,25.34
2022-07-31T16:33:13.867Z,25.06
2022-07-31T16:35:42.164Z,24.87
2022-07-31T16:38:11.764Z,26.08
2022-07-31T16:40:39.822Z,26.40
2022-07-31T16:43:47.508Z,26.56
2022-07-31T16:45:57.081Z,26.77
2022-07-31T16:48:25.312Z,27.43
2022-07-31T16:50:54.948Z,27.72
2022-07-31T16:54:14.562Z,27.93
2022-07-31T16:56:16.026Z,29.22
2022-07-31T16:58:44.693Z,28.71
2022-07-31T17:01:58.749Z,28.72
2022-07-31T17:04:04.058Z,29.13
2022-07-31T17:06:36.187Z,29.39
2022-07-31T17:09:17.019Z,29.70
2022-07-31T17:11:49.050Z,30.53
2022-07-31T17:14:18.879Z,30.76
2022-07-31T17:16:49.192Z,30.76
2022-07-31T17:19:42.827Z,30.98
2022-07-31T17:22:08.025Z,30.79
2022-07-31T17:24:38.223Z,30.98
2022-07-31T17:27:08.539Z,31.32
2022-07-31T17:29:37.791Z,31.73
2022-07-31T17:32:06.858Z,31.87
2022-07-31T17:34:35.325Z,33.08
2022-07-31T17:37:04.053Z,32.53
2022-07-31T17:39:32.600Z,32.81
2022-07-31T17:42:02.010Z,32.68
2022-07-31T17:44:30.990Z,32.43
2022-07-31T17:46:59.968Z,32.49
2022-07-31T17:49:32.073Z,33.50
2022-07-31T17:52:00.626Z,33.22
2022-07-31T17:54:30.239Z,33.07
2022-07-31T17:56:58.422Z,33.69
2022-07-31T17:59:28.497Z,34.29
2022-07-31T18:02:00.102Z,34.20
2022-07-31T18:04:28.911Z,35.40
2022-07-31T18:06:57.574Z,34.95
2022-07-31T18:09:26.257Z,34.81
2022-07-31T18:11:55.234Z,34.78
2022-07-31T18:14:24.858Z,35.37
2022-07-31T18:16:54.588Z,35.93
2022-07-31T18:19:22.961Z,35.83
2022-07-31T18:21:52.459Z,36.73
2022-07-31T18:24:21.349Z,37.03
2022-07-31T18:26:49.754Z,37.12
2022-07-31T18:29:18.767Z,36.78
2022-07-31T18:31:47.409Z,37.98
2022-07-31T18:34:17.195Z,37.98
2022-07-31T18:36:45.601Z,37.77
2022-07-31T18:39:13.839Z,39.43
2022-07-31T18:41:46.847Z,40.36
2022-07-31T18:44:17.228Z,42.51
2022-07-31T18:46:45.559Z,42.79
2022-07-31T18:51:01.572Z,43.86
2022-07-31T18:52:03.645Z,45.09
2022-07-31T18:54:32.034Z,44.19
2022-07-31T18:57:00.627Z,45.80
2022-07-31T18:59:28.742Z,46.14
2022-07-31T19:01:57.312Z,45.52
2022-07-31T19:04:25.610Z,44.89
2022-07-31T19:06:54.663Z,43.87
2022-07-31T19:09:25.217Z,43.44
2022-07-31T19:11:58.515Z,45.92
2022-07-31T19:14:27.078Z,48.02
2022-07-31T19:16:57.827Z,48.02
2022-07-31T19:19:28.402Z,46.83
2022-07-31T19:22:14.365Z,46.81
2022-07-31T19:24:48.073Z,47.54
2022-07-31T19:27:16.265Z,48.10
2022-07-31T19:29:44.424Z,51.81
2022-07-31T19:32:12.884Z,45.60
2022-07-31T19:34:41.970Z,46.19
2022-07-31T19:37:16.143Z,47.00
2022-07-31T19:39:45.877Z,48.23
2022-07-31T19:42:14.058Z,48.46
2022-07-31T19:44:42.245Z,49.12
2022-07-31T19:47:10.396Z,49.33
2022-07-31T19:49:41.337Z,49.67
2022-07-31T19:52:09.590Z,50.58
2022-07-31T19:54:38.591Z,52.42
2022-07-31T19:57:08.184Z,52.63
2022-07-31T19:59:36.384Z,53.33
2022-07-31T20:02:04.905Z,54.31
2022-07-31T20:04:33.337Z,55.17
2022-07-31T20:07:01.494Z,55.38
2022-07-31T20:09:30.896Z,58.20
2022-07-31T20:11:58.907Z,57.70
2022-07-31T20:14:28.810Z,57.78
2022-07-31T20:16:57.016Z,58.05
2022-07-31T20:19:25.309Z,59.30
2022-07-31T20:21:53.685Z,60.91
2022-07-31T20:24:21.950Z,61.72
2022-07-31T20:26:50.043Z,62.57
2022-07-31T20:29:18.093Z,63.36
2022-07-31T20:31:47.710Z,63.65
2022-07-31T20:34:16.306Z,64.49
2022-07-31T20:36:44.428Z,66.33
2022-07-31T20:39:12.630Z,67.96
2022-07-31T20:41:40.707Z,69.07
2022-07-31T20:44:08.859Z,69.98
2022-07-31T20:46:36.945Z,70.77
2022-07-31T20:49:06.713Z,73.38
2022-07-31T20:51:35.031Z,73.72
2022-07-31T20:54:04.273Z,73.50
2022-07-31T20:56:32.489Z,75.49
2022-07-31T20:59:00.596Z,76.36
2022-07-31T21:01:28.812Z,76.88
2022-07-31T21:03:57.042Z,79.20
2022-07-31T21:06:26.597Z,80.56
2022-07-31T21:08:54.537Z,81.50
2022-07-31T21:11:22.695Z,81.49
2022-07-31T21:14:00.050Z,85.33
2022-07-31T21:16:28.236Z,85.61
2022-07-31T21:18:56.423Z,85.95
2022-07-31T21:21:26.069Z,84.59
2022-07-31T21:23:54.062Z,86.04
2022-07-31T21:26:22.727Z,86.98
2022-07-31T21:28:51.710Z,87.17
2022-07-31T21:31:20.429Z,90.37
2022-07-31T21:33:48.954Z,89.73
2022-07-31T21:36:17.566Z,88.42
2022-07-31T21:38:47.578Z,88.24
2022-07-31T21:41:16.431Z,88.29
2022-07-31T21:43:58.575Z,88.49
2022-07-31T21:46:29.566Z,89.21
2022-07-31T21:48:58.177Z,88.52
2022-07-31T21:51:26.805Z,89.29
2022-07-31T21:53:56.229Z,89.43
2022-07-31T21:56:24.360Z,91.14
2022-07-31T21:58:52.501Z,90.62
2022-07-31T22:01:20.851Z,90.08
2022-07-31T22:03:48.977Z,92.11
2022-07-31T22:06:34.726Z,92.86
2022-07-31T22:09:04.309Z,91.89
2022-07-31T22:11:33.701Z,95.89
2022-07-31T22:14:01.909Z,94.28
2022-07-31T22:16:30.676Z,95.22
2022-07-31T22:18:59.351Z,94.15
2022-07-31T22:21:29.098Z,93.35
2022-07-31T22:23:58.102Z,95.81
2022-07-31T22:26:27.891Z,94.72
2022-07-31T22:28:56.398Z,95.64
2022-07-31T22:31:25.452Z,95.87
2022-07-31T22:33:54.079Z,97.11
2022-07-31T22:36:22.279Z,97.67
2022-07-31T22:38:50.768Z,99.62
2022-07-31T22:41:18.963Z,97.72
2022-07-31T22:44:13.647Z,96.99
2022-07-31T22:46:37.891Z,98.78
2022-07-31T22:49:08.158Z,99.80
2022-07-31T22:51:38.561Z,99.85
2022-07-31T22:54:07.391Z,100.00
2022-07-31T22:56:35.505Z,100.00
2022-07-31T22:59:05.116Z,100.00
2022-07-31T23:01:33.385Z,100.00
2022-07-31T23:04:01.559Z,100.00
2022-07-31T23:06:32.557Z,100.00
2022-07-31T23:09:02.004Z,100.00
2022-07-31T23:11:30.480Z,100.00
2022-07-31T23:13:58.867Z,100.00
2022-07-31T23:16:28.463Z,100.00
2022-07-31T23:18:56.692Z,100.00
2022-07-31T23:21:25.263Z,100.00
2022-07-31T23:23:53.589Z,100.00
2022-07-31T23:26:24.760Z,100.00
2022-07-31T23:28:54.314Z,100.00
2022-07-31T23:31:23.272Z,100.00
2022-07-31T23:33:54.142Z,100.00
2022-07-31T23:36:22.731Z,100.00
2022-07-31T23:38:51.087Z,100.00
2022-07-31T23:41:39.836Z,100.00
2022-07-31T23:44:10.483Z,100.00
2022-07-31T23:46:40.436Z,100.00
2022-07-31T23:49:10.380Z,100.00
2022-07-31T23:51:38.564Z,100.00
2022-07-31T23:54:07.615Z,100.00
2022-07-31T23:56:35.805Z,100.00
2022-07-31T23:59:04.036Z,100.00
